sensor_id;sensor_type;location;lat;lon;timestamp;P1;durP1;ratioP1;P2;durP2;ratioP2
12770;SDS011;6449;47.666;9.160;2023-12-20T00:01:04;5.23;;;3.67;;
12770;SDS011;6449;47.666;9.160;2023-12-20T00:05:58;3.83;;;2.93;;
12770;SDS011;6449;47.666;9.160;2023-12-20T00:10:52;4.87;;;3.23;;
12770;SDS011;6449;47.666;9.160;2023-12-20T00:15:45;3.80;;;2.60;;
12770;SDS011;6449;47.666;9.160;2023-12-20T00:20:39;3.27;;;2.70;;
12770;SDS011;6449;47.666;9.160;2023-12-20T00:25:34;4.00;;;2.80;;
12770;SDS011;6449;47.666;9.160;2023-12-20T00:30:27;3.90;;;2.80;;
12770;SDS011;6449;47.666;9.160;2023-12-20T00:35:21;4.07;;;3.03;;
12770;SDS011;6449;47.666;9.160;2023-12-20T00:40:14;3.33;;;3.00;;
12770;SDS011;6449;47.666;9.160;2023-12-20T00:45:09;4.87;;;3.60;;
12770;SDS011;6449;47.666;9.160;2023-12-20T00:50:03;4.17;;;3.37;;
12770;SDS011;6449;47.666;9.160;2023-12-20T00:55:00;4.57;;;3.13;;
12770;SDS011;6449;47.666;9.160;2023-12-20T00:59:54;3.33;;;2.73;;
12770;SDS011;6449;47.666;9.160;2023-12-20T01:04:49;3.93;;;3.30;;
12770;SDS011;6449;47.666;9.160;2023-12-20T01:09:42;5.37;;;3.60;;
12770;SDS011;6449;47.666;9.160;2023-12-20T01:14:36;4.03;;;3.37;;
12770;SDS011;6449;47.666;9.160;2023-12-20T01:19:31;4.17;;;3.17;;
12770;SDS011;6449;47.666;9.160;2023-12-20T01:24:26;4.53;;;3.43;;
12770;SDS011;6449;47.666;9.160;2023-12-20T01:29:19;4.73;;;3.40;;
12770;SDS011;6449;47.666;9.160;2023-12-20T01:34:14;4.47;;;3.90;;
12770;SDS011;6449;47.666;9.160;2023-12-20T01:39:07;5.13;;;3.67;;
12770;SDS011;6449;47.666;9.160;2023-12-20T01:44:16;4.63;;;3.47;;
12770;SDS011;6449;47.666;9.160;2023-12-20T01:49:10;5.60;;;3.77;;
12770;SDS011;6449;47.666;9.160;2023-12-20T01:54:04;5.97;;;3.87;;
12770;SDS011;6449;47.666;9.160;2023-12-20T01:58:58;4.60;;;3.73;;
12770;SDS011;6449;47.666;9.160;2023-12-20T02:03:54;7.00;;;4.20;;
12770;SDS011;6449;47.666;9.160;2023-12-20T02:08:49;6.03;;;4.30;;
12770;SDS011;6449;47.666;9.160;2023-12-20T02:13:43;5.63;;;3.93;;
12770;SDS011;6449;47.666;9.160;2023-12-20T02:18:36;6.10;;;4.40;;
12770;SDS011;6449;47.666;9.160;2023-12-20T02:23:31;7.53;;;4.20;;
12770;SDS011;6449;47.666;9.160;2023-12-20T02:28:25;6.10;;;4.17;;
12770;SDS011;6449;47.666;9.160;2023-12-20T02:33:19;8.10;;;5.37;;
12770;SDS011;6449;47.666;9.160;2023-12-20T02:38:12;6.13;;;4.23;;
12770;SDS011;6449;47.666;9.160;2023-12-20T02:43:07;6.63;;;4.47;;
12770;SDS011;6449;47.666;9.160;2023-12-20T02:48:00;6.57;;;4.17;;
12770;SDS011;6449;47.666;9.160;2023-12-20T02:52:54;6.37;;;4.03;;
12770;SDS011;6449;47.666;9.160;2023-12-20T02:57:48;5.47;;;4.30;;
12770;SDS011;6449;47.666;9.160;2023-12-20T03:02:43;7.37;;;4.50;;
12770;SDS011;6449;47.666;9.160;2023-12-20T03:07:36;6.87;;;4.27;;
12770;SDS011;6449;47.666;9.160;2023-12-20T03:12:30;7.47;;;4.43;;
12770;SDS011;6449;47.666;9.160;2023-12-20T03:17:23;8.30;;;4.47;;
12770;SDS011;6449;47.666;9.160;2023-12-20T03:22:18;5.50;;;4.43;;
12770;SDS011;6449;47.666;9.160;2023-12-20T03:27:12;6.63;;;4.67;;
12770;SDS011;6449;47.666;9.160;2023-12-20T03:32:05;7.07;;;4.60;;
12770;SDS011;6449;47.666;9.160;2023-12-20T03:37:00;5.93;;;4.40;;
12770;SDS011;6449;47.666;9.160;2023-12-20T03:41:55;5.47;;;4.27;;
12770;SDS011;6449;47.666;9.160;2023-12-20T03:46:48;6.30;;;4.80;;
12770;SDS011;6449;47.666;9.160;2023-12-20T03:51:41;7.33;;;4.47;;
12770;SDS011;6449;47.666;9.160;2023-12-20T03:56:35;6.60;;;4.93;;
12770;SDS011;6449;47.666;9.160;2023-12-20T04:01:29;8.17;;;4.83;;
12770;SDS011;6449;47.666;9.160;2023-12-20T04:06:23;8.20;;;5.67;;
12770;SDS011;6449;47.666;9.160;2023-12-20T04:11:16;7.67;;;4.97;;
12770;SDS011;6449;47.666;9.160;2023-12-20T04:16:10;8.47;;;5.27;;
12770;SDS011;6449;47.666;9.160;2023-12-20T04:21:10;11.47;;;5.80;;
12770;SDS011;6449;47.666;9.160;2023-12-20T04:27:54;7.30;;;5.53;;
12770;SDS011;6449;47.666;9.160;2023-12-20T04:32:16;9.30;;;6.37;;
12770;SDS011;6449;47.666;9.160;2023-12-20T04:43:24;10.50;;;6.60;;
12770;SDS011;6449;47.666;9.160;2023-12-20T04:49:42;9.73;;;7.20;;
12770;SDS011;6449;47.666;9.160;2023-12-20T05:05:42;9.70;;;7.13;;
12770;SDS011;6449;47.666;9.160;2023-12-20T05:10:50;8.87;;;6.87;;
12770;SDS011;6449;47.666;9.160;2023-12-20T05:21:12;9.90;;;7.23;;
12770;SDS011;6449;47.666;9.160;2023-12-20T05:26:10;10.50;;;7.47;;
12770;SDS011;6449;47.666;9.160;2023-12-20T05:31:05;9.77;;;7.20;;
12770;SDS011;6449;47.666;9.160;2023-12-20T05:35:59;9.90;;;6.77;;
12770;SDS011;6449;47.666;9.160;2023-12-20T05:40:57;10.23;;;7.63;;
12770;SDS011;6449;47.666;9.160;2023-12-20T05:45:51;11.90;;;8.07;;
12770;SDS011;6449;47.666;9.160;2023-12-20T05:50:44;9.83;;;7.77;;
12770;SDS011;6449;47.666;9.160;2023-12-20T05:55:37;11.17;;;8.07;;
12770;SDS011;6449;47.666;9.160;2023-12-20T06:00:32;9.47;;;7.43;;
12770;SDS011;6449;47.666;9.160;2023-12-20T06:05:32;9.30;;;6.80;;
12770;SDS011;6449;47.666;9.160;2023-12-20T06:10:25;11.00;;;7.13;;
12770;SDS011;6449;47.666;9.160;2023-12-20T06:15:18;10.10;;;7.23;;
12770;SDS011;6449;47.666;9.160;2023-12-20T06:20:13;9.30;;;6.73;;
12770;SDS011;6449;47.666;9.160;2023-12-20T06:25:08;11.67;;;7.50;;
12770;SDS011;6449;47.666;9.160;2023-12-20T06:30:01;9.17;;;7.40;;
12770;SDS011;6449;47.666;9.160;2023-12-20T06:34:56;9.87;;;7.43;;
12770;SDS011;6449;47.666;9.160;2023-12-20T06:39:51;12.77;;;7.90;;
12770;SDS011;6449;47.666;9.160;2023-12-20T06:44:44;12.33;;;8.90;;
12770;SDS011;6449;47.666;9.160;2023-12-20T06:49:39;11.30;;;7.87;;
12770;SDS011;6449;47.666;9.160;2023-12-20T06:54:33;11.40;;;8.17;;
12770;SDS011;6449;47.666;9.160;2023-12-20T06:59:28;10.23;;;7.57;;
12770;SDS011;6449;47.666;9.160;2023-12-20T07:04:21;10.83;;;7.10;;
12770;SDS011;6449;47.666;9.160;2023-12-20T07:09:15;8.27;;;6.73;;
12770;SDS011;6449;47.666;9.160;2023-12-20T07:14:08;10.33;;;7.07;;
12770;SDS011;6449;47.666;9.160;2023-12-20T07:19:03;9.30;;;7.07;;
12770;SDS011;6449;47.666;9.160;2023-12-20T07:23:56;11.37;;;8.03;;
12770;SDS011;6449;47.666;9.160;2023-12-20T07:28:50;9.87;;;7.20;;
12770;SDS011;6449;47.666;9.160;2023-12-20T07:33:43;11.23;;;7.77;;
12770;SDS011;6449;47.666;9.160;2023-12-20T07:38:38;9.30;;;6.97;;
12770;SDS011;6449;47.666;9.160;2023-12-20T07:43:33;10.77;;;7.13;;
12770;SDS011;6449;47.666;9.160;2023-12-20T07:48:26;9.33;;;6.57;;
12770;SDS011;6449;47.666;9.160;2023-12-20T07:53:20;10.07;;;7.50;;
12770;SDS011;6449;47.666;9.160;2023-12-20T07:58:14;7.57;;;6.07;;
12770;SDS011;6449;47.666;9.160;2023-12-20T08:03:08;7.83;;;6.10;;
12770;SDS011;6449;47.666;9.160;2023-12-20T08:08:01;8.63;;;5.90;;
12770;SDS011;6449;47.666;9.160;2023-12-20T08:12:55;8.80;;;6.77;;
12770;SDS011;6449;47.666;9.160;2023-12-20T08:17:49;8.97;;;6.13;;
12770;SDS011;6449;47.666;9.160;2023-12-20T08:22:43;8.60;;;6.57;;
12770;SDS011;6449;47.666;9.160;2023-12-20T08:27:38;8.60;;;6.67;;
12770;SDS011;6449;47.666;9.160;2023-12-20T08:32:36;9.60;;;6.80;;
12770;SDS011;6449;47.666;9.160;2023-12-20T08:37:31;8.57;;;6.30;;
12770;SDS011;6449;47.666;9.160;2023-12-20T08:42:24;9.77;;;6.40;;
12770;SDS011;6449;47.666;9.160;2023-12-20T08:47:22;8.77;;;6.63;;
12770;SDS011;6449;47.666;9.160;2023-12-20T09:33:01;5.23;;;4.40;;
12770;SDS011;6449;47.666;9.160;2023-12-20T09:37:55;5.03;;;3.93;;
12770;SDS011;6449;47.666;9.160;2023-12-20T09:42:56;5.27;;;4.00;;
12770;SDS011;6449;47.666;9.160;2023-12-20T09:47:56;5.17;;;3.90;;
12770;SDS011;6449;47.666;9.160;2023-12-20T09:52:52;4.30;;;3.60;;
12770;SDS011;6449;47.666;9.160;2023-12-20T09:57:48;4.10;;;3.27;;
12770;SDS011;6449;47.666;9.160;2023-12-20T10:02:45;4.73;;;3.70;;
12770;SDS011;6449;47.666;9.160;2023-12-20T10:07:50;3.97;;;3.17;;
12770;SDS011;6449;47.666;9.160;2023-12-20T10:13:01;4.40;;;3.63;;
12770;SDS011;6449;47.666;9.160;2023-12-20T10:17:57;3.97;;;3.30;;
12770;SDS011;6449;47.666;9.160;2023-12-20T10:22:52;3.80;;;3.33;;
12770;SDS011;6449;47.666;9.160;2023-12-20T10:27:49;4.20;;;3.50;;
12770;SDS011;6449;47.666;9.160;2023-12-20T10:53:32;3.20;;;2.90;;
12770;SDS011;6449;47.666;9.160;2023-12-20T10:58:30;2.83;;;2.57;;
12770;SDS011;6449;47.666;9.160;2023-12-20T11:03:27;2.47;;;2.27;;
12770;SDS011;6449;47.666;9.160;2023-12-20T11:08:28;4.83;;;2.13;;
12770;SDS011;6449;47.666;9.160;2023-12-20T11:34:13;0.93;;;0.93;;
12770;SDS011;6449;47.666;9.160;2023-12-20T11:39:09;1.30;;;0.93;;
12770;SDS011;6449;47.666;9.160;2023-12-20T11:44:04;1.67;;;1.57;;
12770;SDS011;6449;47.666;9.160;2023-12-20T11:48:58;4.20;;;2.20;;
12770;SDS011;6449;47.666;9.160;2023-12-20T11:53:55;5.80;;;2.23;;
12770;SDS011;6449;47.666;9.160;2023-12-20T11:58:49;2.77;;;2.40;;
12770;SDS011;6449;47.666;9.160;2023-12-20T12:03:45;2.00;;;1.80;;
12770;SDS011;6449;47.666;9.160;2023-12-20T12:08:39;2.00;;;1.90;;
12770;SDS011;6449;47.666;9.160;2023-12-20T12:13:35;1.73;;;1.60;;
12770;SDS011;6449;47.666;9.160;2023-12-20T12:18:31;1.63;;;1.53;;
12770;SDS011;6449;47.666;9.160;2023-12-20T12:23:24;1.67;;;1.57;;
12770;SDS011;6449;47.666;9.160;2023-12-20T12:28:18;1.50;;;1.40;;
12770;SDS011;6449;47.666;9.160;2023-12-20T12:53:41;1.20;;;1.10;;
12770;SDS011;6449;47.666;9.160;2023-12-20T13:34:21;2.07;;;1.20;;
12770;SDS011;6449;47.666;9.160;2023-12-20T13:39:15;1.03;;;0.93;;
12770;SDS011;6449;47.666;9.160;2023-12-20T13:44:09;0.90;;;0.80;;
12770;SDS011;6449;47.666;9.160;2023-12-20T13:49:04;0.80;;;0.80;;
12770;SDS011;6449;47.666;9.160;2023-12-20T13:54:02;0.77;;;0.77;;
12770;SDS011;6449;47.666;9.160;2023-12-20T13:58:55;0.83;;;0.83;;
12770;SDS011;6449;47.666;9.160;2023-12-20T14:03:49;1.20;;;1.10;;
12770;SDS011;6449;47.666;9.160;2023-12-20T14:08:43;1.00;;;0.90;;
12770;SDS011;6449;47.666;9.160;2023-12-20T14:34:15;1.23;;;1.13;;
12770;SDS011;6449;47.666;9.160;2023-12-20T14:39:09;2.70;;;1.13;;
12770;SDS011;6449;47.666;9.160;2023-12-20T14:44:04;1.60;;;1.17;;
12770;SDS011;6449;47.666;9.160;2023-12-20T14:48:57;1.80;;;1.03;;
12770;SDS011;6449;47.666;9.160;2023-12-20T15:04:08;1.87;;;1.17;;
12770;SDS011;6449;47.666;9.160;2023-12-20T15:19:59;1.93;;;1.23;;
12770;SDS011;6449;47.666;9.160;2023-12-20T15:25:18;1.83;;;1.50;;
12770;SDS011;6449;47.666;9.160;2023-12-20T15:35:16;3.80;;;1.90;;
12770;SDS011;6449;47.666;9.160;2023-12-20T15:40:11;1.93;;;1.50;;
12770;SDS011;6449;47.666;9.160;2023-12-20T15:45:05;2.40;;;1.70;;
12770;SDS011;6449;47.666;9.160;2023-12-20T15:50:00;3.93;;;2.00;;
12770;SDS011;6449;47.666;9.160;2023-12-20T15:54:55;3.43;;;2.00;;
12770;SDS011;6449;47.666;9.160;2023-12-20T15:59:49;3.47;;;1.90;;
12770;SDS011;6449;47.666;9.160;2023-12-20T16:04:42;5.33;;;2.13;;
12770;SDS011;6449;47.666;9.160;2023-12-20T16:09:36;2.33;;;1.87;;
12770;SDS011;6449;47.666;9.160;2023-12-20T16:14:30;2.57;;;1.77;;
12770;SDS011;6449;47.666;9.160;2023-12-20T16:19:24;3.43;;;1.87;;
12770;SDS011;6449;47.666;9.160;2023-12-20T16:24:17;2.33;;;1.50;;
12770;SDS011;6449;47.666;9.160;2023-12-20T16:29:11;2.03;;;1.30;;
12770;SDS011;6449;47.666;9.160;2023-12-20T16:34:06;3.40;;;1.43;;
12770;SDS011;6449;47.666;9.160;2023-12-20T16:39:00;3.73;;;1.80;;
12770;SDS011;6449;47.666;9.160;2023-12-20T16:43:54;1.97;;;1.17;;
12770;SDS011;6449;47.666;9.160;2023-12-20T16:48:47;1.80;;;1.37;;
12770;SDS011;6449;47.666;9.160;2023-12-20T16:53:43;1.47;;;1.27;;
12770;SDS011;6449;47.666;9.160;2023-12-20T16:58:37;2.23;;;1.30;;
12770;SDS011;6449;47.666;9.160;2023-12-20T17:03:30;2.30;;;1.07;;
12770;SDS011;6449;47.666;9.160;2023-12-20T17:36:29;2.83;;;1.30;;
12770;SDS011;6449;47.666;9.160;2023-12-20T17:47:40;3.27;;;1.20;;
12770;SDS011;6449;47.666;9.160;2023-12-20T17:53:29;9.23;;;1.90;;
12770;SDS011;6449;47.666;9.160;2023-12-20T17:58:23;4.07;;;1.43;;
12770;SDS011;6449;47.666;9.160;2023-12-20T18:03:16;3.80;;;1.40;;
12770;SDS011;6449;47.666;9.160;2023-12-20T18:08:10;1.90;;;1.27;;
12770;SDS011;6449;47.666;9.160;2023-12-20T18:13:04;2.93;;;1.30;;
12770;SDS011;6449;47.666;9.160;2023-12-20T18:17:58;2.77;;;1.27;;
12770;SDS011;6449;47.666;9.160;2023-12-20T18:22:52;3.23;;;1.30;;
12770;SDS011;6449;47.666;9.160;2023-12-20T18:27:46;2.77;;;1.33;;
12770;SDS011;6449;47.666;9.160;2023-12-20T18:32:42;1.73;;;1.00;;
12770;SDS011;6449;47.666;9.160;2023-12-20T18:37:36;3.80;;;1.00;;
12770;SDS011;6449;47.666;9.160;2023-12-20T18:42:30;1.43;;;1.00;;
12770;SDS011;6449;47.666;9.160;2023-12-20T18:47:24;2.57;;;1.30;;
12770;SDS011;6449;47.666;9.160;2023-12-20T18:52:19;2.33;;;1.20;;
12770;SDS011;6449;47.666;9.160;2023-12-20T18:57:14;3.30;;;1.07;;
12770;SDS011;6449;47.666;9.160;2023-12-20T19:02:08;3.97;;;1.50;;
12770;SDS011;6449;47.666;9.160;2023-12-20T19:07:04;4.17;;;1.30;;
12770;SDS011;6449;47.666;9.160;2023-12-20T19:11:59;4.17;;;1.20;;
12770;SDS011;6449;47.666;9.160;2023-12-20T19:16:52;3.87;;;1.70;;
12770;SDS011;6449;47.666;9.160;2023-12-20T19:21:50;4.27;;;1.80;;
12770;SDS011;6449;47.666;9.160;2023-12-20T19:26:43;2.43;;;1.60;;
12770;SDS011;6449;47.666;9.160;2023-12-20T19:31:38;6.77;;;1.50;;
12770;SDS011;6449;47.666;9.160;2023-12-20T19:36:31;4.80;;;1.50;;
12770;SDS011;6449;47.666;9.160;2023-12-20T19:41:28;1.43;;;1.30;;
12770;SDS011;6449;47.666;9.160;2023-12-20T19:46:21;2.00;;;1.27;;
12770;SDS011;6449;47.666;9.160;2023-12-20T19:51:16;2.40;;;1.03;;
12770;SDS011;6449;47.666;9.160;2023-12-20T19:56:12;2.70;;;1.03;;
12770;SDS011;6449;47.666;9.160;2023-12-20T20:01:06;5.13;;;1.20;;
12770;SDS011;6449;47.666;9.160;2023-12-20T20:05:59;1.10;;;1.00;;
12770;SDS011;6449;47.666;9.160;2023-12-20T20:10:54;0.67;;;0.57;;
12770;SDS011;6449;47.666;9.160;2023-12-20T20:15:48;3.03;;;1.17;;
12770;SDS011;6449;47.666;9.160;2023-12-20T20:20:41;1.57;;;1.00;;
12770;SDS011;6449;47.666;9.160;2023-12-20T20:25:35;1.20;;;1.10;;
12770;SDS011;6449;47.666;9.160;2023-12-20T20:30:29;1.73;;;0.80;;
12770;SDS011;6449;47.666;9.160;2023-12-20T20:35:23;1.27;;;1.03;;
12770;SDS011;6449;47.666;9.160;2023-12-20T20:40:16;1.10;;;1.00;;
12770;SDS011;6449;47.666;9.160;2023-12-20T20:45:11;1.60;;;0.90;;
12770;SDS011;6449;47.666;9.160;2023-12-20T20:50:08;4.40;;;1.10;;
12770;SDS011;6449;47.666;9.160;2023-12-20T20:55:02;1.90;;;1.20;;
12770;SDS011;6449;47.666;9.160;2023-12-20T21:00:00;1.07;;;0.97;;
12770;SDS011;6449;47.666;9.160;2023-12-20T21:04:55;1.60;;;1.10;;
12770;SDS011;6449;47.666;9.160;2023-12-20T21:09:50;1.40;;;1.17;;
12770;SDS011;6449;47.666;9.160;2023-12-20T21:14:51;3.80;;;1.47;;
12770;SDS011;6449;47.666;9.160;2023-12-20T21:19:49;1.40;;;1.17;;
12770;SDS011;6449;47.666;9.160;2023-12-20T21:24:43;1.07;;;0.97;;
12770;SDS011;6449;47.666;9.160;2023-12-20T21:34:35;1.13;;;0.97;;
12770;SDS011;6449;47.666;9.160;2023-12-20T21:39:31;2.87;;;1.10;;
12770;SDS011;6449;47.666;9.160;2023-12-20T21:44:28;1.00;;;0.93;;
12770;SDS011;6449;47.666;9.160;2023-12-20T21:49:25;1.57;;;1.20;;
12770;SDS011;6449;47.666;9.160;2023-12-20T21:54:22;1.70;;;1.20;;
12770;SDS011;6449;47.666;9.160;2023-12-20T21:59:18;0.97;;;0.97;;
12770;SDS011;6449;47.666;9.160;2023-12-20T22:04:13;1.70;;;1.13;;
12770;SDS011;6449;47.666;9.160;2023-12-20T22:09:12;1.80;;;1.17;;
12770;SDS011;6449;47.666;9.160;2023-12-20T22:14:07;3.50;;;1.30;;
12770;SDS011;6449;47.666;9.160;2023-12-20T22:19:03;2.93;;;1.13;;
12770;SDS011;6449;47.666;9.160;2023-12-20T22:23:56;1.93;;;1.17;;
12770;SDS011;6449;47.666;9.160;2023-12-20T22:28:50;2.50;;;1.07;;
12770;SDS011;6449;47.666;9.160;2023-12-20T22:33:45;0.90;;;0.80;;
12770;SDS011;6449;47.666;9.160;2023-12-20T22:38:38;2.00;;;1.17;;
12770;SDS011;6449;47.666;9.160;2023-12-20T22:43:32;1.00;;;0.90;;
12770;SDS011;6449;47.666;9.160;2023-12-20T22:48:25;2.97;;;0.90;;
12770;SDS011;6449;47.666;9.160;2023-12-20T22:53:20;1.73;;;1.10;;
12770;SDS011;6449;47.666;9.160;2023-12-20T22:58:14;1.47;;;1.10;;
12770;SDS011;6449;47.666;9.160;2023-12-20T23:03:07;2.20;;;1.40;;
12770;SDS011;6449;47.666;9.160;2023-12-20T23:08:01;1.23;;;1.10;;
12770;SDS011;6449;47.666;9.160;2023-12-20T23:12:57;2.00;;;0.87;;
12770;SDS011;6449;47.666;9.160;2023-12-20T23:17:51;1.40;;;0.80;;
12770;SDS011;6449;47.666;9.160;2023-12-20T23:22:47;0.93;;;0.90;;
12770;SDS011;6449;47.666;9.160;2023-12-20T23:27:41;1.10;;;0.77;;
12770;SDS011;6449;47.666;9.160;2023-12-20T23:32:39;1.63;;;0.80;;
12770;SDS011;6449;47.666;9.160;2023-12-20T23:37:32;2.00;;;0.70;;
12770;SDS011;6449;47.666;9.160;2023-12-20T23:42:26;1.23;;;1.00;;
12770;SDS011;6449;47.666;9.160;2023-12-20T23:47:19;1.63;;;1.07;;
12770;SDS011;6449;47.666;9.160;2023-12-20T23:52:14;1.00;;;0.83;;
12770;SDS011;6449;47.666;9.160;2023-12-20T23:57:09;0.83;;;0.70;;
